sensor_id;sensor_type;location;lat;lon;timestamp;pressure;altitude;pressure_sealevel;temperature;humidity
63399;BME280;49533;-34.520;150.798;2023-07-22T00:00:31;101186.78;;;15.70;41.53
63399;BME280;49533;-34.520;150.798;2023-07-22T00:02:58;101193.56;;;15.73;41.37
63399;BME280;49533;-34.520;150.798;2023-07-22T00:05:25;101131.72;;;15.37;41.31
63399;BME280;49533;-34.520;150.798;2023-07-22T00:07:52;101171.28;;;15.65;41.12
63399;BME280;49533;-34.520;150.798;2023-07-22T00:10:20;101175.31;;;15.68;41.23
63399;BME280;49533;-34.520;150.798;2023-07-22T00:12:47;101197.22;;;15.85;40.95
63399;BME280;49533;-34.520;150.798;2023-07-22T00:15:15;101151.50;;;15.60;40.50
63399;BME280;49533;-34.520;150.798;2023-07-22T00:17:42;101194.16;;;15.87;40.64
63399;BME280;49533;-34.520;150.798;2023-07-22T00:20:10;101146.81;;;15.60;40.64
63399;BME280;49533;-34.520;150.798;2023-07-22T00:22:38;101191.72;;;15.94;40.79
63399;BME280;49533;-34.520;150.798;2023-07-22T00:25:09;101186.06;;;15.99;40.47
63399;BME280;49533;-34.520;150.798;2023-07-22T00:27:38;101012.97;;;14.51;40.20
63399;BME280;49533;-34.520;150.798;2023-07-22T00:30:06;101110.72;;;15.58;40.36
63399;BME280;49533;-34.520;150.798;2023-07-22T00:32:34;101099.47;;;15.51;40.43
63399;BME280;49533;-34.520;150.798;2023-07-22T00:35:05;101158.16;;;15.97;40.41
63399;BME280;49533;-34.520;150.798;2023-07-22T00:37:33;101151.09;;;15.96;40.48
63399;BME280;49533;-34.520;150.798;2023-07-22T00:40:01;101173.75;;;16.14;40.48
63399;BME280;49533;-34.520;150.798;2023-07-22T00:42:32;101080.47;;;15.55;40.44
63399;BME280;49533;-34.520;150.798;2023-07-22T00:44:59;101120.47;;;15.94;41.19
63399;BME280;49533;-34.520;150.798;2023-07-22T00:47:27;101165.97;;;16.25;40.98
63399;BME280;49533;-34.520;150.798;2023-07-22T00:49:55;101166.94;;;16.29;40.96
63399;BME280;49533;-34.520;150.798;2023-07-22T00:52:22;101168.22;;;16.32;40.88
63399;BME280;49533;-34.520;150.798;2023-07-22T00:54:49;101080.06;;;15.82;40.64
63399;BME280;49533;-34.520;150.798;2023-07-22T00:57:16;101158.66;;;16.38;40.53
63399;BME280;49533;-34.520;150.798;2023-07-22T00:59:44;101033.53;;;15.65;40.68
63399;BME280;49533;-34.520;150.798;2023-07-22T01:02:11;101154.91;;;16.42;40.90
63399;BME280;49533;-34.520;150.798;2023-07-22T01:04:39;101126.28;;;16.31;41.25
63399;BME280;49533;-34.520;150.798;2023-07-22T01:07:07;101141.63;;;16.53;40.98
63399;BME280;49533;-34.520;150.798;2023-07-22T01:09:37;101147.59;;;16.55;40.71
63399;BME280;49533;-34.520;150.798;2023-07-22T01:12:05;101146.59;;;16.60;40.69
63399;BME280;49533;-34.520;150.798;2023-07-22T01:14:34;101054.94;;;16.10;40.70
63399;BME280;49533;-34.520;150.798;2023-07-22T01:17:03;101133.78;;;16.64;40.67
63399;BME280;49533;-34.520;150.798;2023-07-22T01:19:32;101122.78;;;16.51;40.84
63399;BME280;49533;-34.520;150.798;2023-07-22T01:22:01;101049.72;;;16.17;41.24
63399;BME280;49533;-34.520;150.798;2023-07-22T01:24:30;101106.56;;;16.59;40.89
63399;BME280;49533;-34.520;150.798;2023-07-22T01:26:57;101059.00;;;16.34;41.33
63399;BME280;49533;-34.520;150.798;2023-07-22T01:29:25;101131.31;;;16.80;41.06
63399;BME280;49533;-34.520;150.798;2023-07-22T01:31:54;101104.88;;;16.66;41.09
63399;BME280;49533;-34.520;150.798;2023-07-22T01:34:22;101081.06;;;16.58;40.74
63399;BME280;49533;-34.520;150.798;2023-07-22T01:36:51;101109.50;;;16.83;40.70
63399;BME280;49533;-34.520;150.798;2023-07-22T01:39:18;101105.16;;;16.82;40.58
63399;BME280;49533;-34.520;150.798;2023-07-22T01:41:45;101049.63;;;16.56;40.81
63399;BME280;49533;-34.520;150.798;2023-07-22T01:44:12;101019.13;;;16.36;40.47
63399;BME280;49533;-34.520;150.798;2023-07-22T01:46:40;101043.16;;;16.60;40.48
63399;BME280;49533;-34.520;150.798;2023-07-22T01:49:11;101014.56;;;16.40;40.61
63399;BME280;49533;-34.520;150.798;2023-07-22T01:51:39;101003.59;;;16.40;40.47
63399;BME280;49533;-34.520;150.798;2023-07-22T01:54:07;101079.56;;;16.90;40.72
63399;BME280;49533;-34.520;150.798;2023-07-22T01:56:36;101025.53;;;16.61;40.43
63399;BME280;49533;-34.520;150.798;2023-07-22T01:59:03;101015.59;;;16.57;40.19
63399;BME280;49533;-34.520;150.798;2023-07-22T02:01:30;101063.56;;;16.92;40.14
63399;BME280;49533;-34.520;150.798;2023-07-22T02:03:57;101058.88;;;16.93;40.31
63399;BME280;49533;-34.520;150.798;2023-07-22T02:06:24;100983.00;;;16.55;40.43
63399;BME280;49533;-34.520;150.798;2023-07-22T02:08:51;101033.72;;;16.91;40.74
63399;BME280;49533;-34.520;150.798;2023-07-22T02:11:18;101040.72;;;17.01;40.42
63399;BME280;49533;-34.520;150.798;2023-07-22T02:13:45;101031.34;;;17.02;40.33
63399;BME280;49533;-34.520;150.798;2023-07-22T02:16:13;101026.94;;;16.88;40.55
63399;BME280;49533;-34.520;150.798;2023-07-22T02:18:40;101007.06;;;16.91;40.22
63399;BME280;49533;-34.520;150.798;2023-07-22T02:21:07;101014.19;;;17.05;40.43
63399;BME280;49533;-34.520;150.798;2023-07-22T02:23:34;101017.88;;;17.09;40.68
63399;BME280;49533;-34.520;150.798;2023-07-22T02:26:02;100949.78;;;16.69;40.36
63399;BME280;49533;-34.520;150.798;2023-07-22T02:28:30;100992.56;;;17.03;40.31
63399;BME280;49533;-34.520;150.798;2023-07-22T02:31:02;100946.88;;;16.86;40.49
63399;BME280;49533;-34.520;150.798;2023-07-22T02:33:33;100985.03;;;17.12;40.25
63399;BME280;49533;-34.520;150.798;2023-07-22T02:36:00;100993.75;;;17.27;40.40
63399;BME280;49533;-34.520;150.798;2023-07-22T02:38:27;100995.03;;;17.29;40.47
63399;BME280;49533;-34.520;150.798;2023-07-22T02:40:54;100975.22;;;17.24;40.55
63399;BME280;49533;-34.520;150.798;2023-07-22T02:43:21;100919.91;;;16.88;40.40
63399;BME280;49533;-34.520;150.798;2023-07-22T02:45:48;100975.34;;;17.39;40.21
63399;BME280;49533;-34.520;150.798;2023-07-22T02:48:15;100960.91;;;17.30;40.35
63399;BME280;49533;-34.520;150.798;2023-07-22T02:50:43;100982.22;;;17.46;40.17
63399;BME280;49533;-34.520;150.798;2023-07-22T02:53:10;100970.09;;;17.47;40.22
63399;BME280;49533;-34.520;150.798;2023-07-22T02:55:37;100900.03;;;17.04;40.35
63399;BME280;49533;-34.520;150.798;2023-07-22T02:58:05;100955.09;;;17.32;40.09
63399;BME280;49533;-34.520;150.798;2023-07-22T03:00:32;100929.44;;;17.28;40.01
63399;BME280;49533;-34.520;150.798;2023-07-22T03:02:59;100932.88;;;17.25;39.84
63399;BME280;49533;-34.520;150.798;2023-07-22T03:05:28;100949.59;;;17.32;40.19
63399;BME280;49533;-34.520;150.798;2023-07-22T03:07:56;100942.16;;;17.32;39.99
63399;BME280;49533;-34.520;150.798;2023-07-22T03:10:23;100933.25;;;17.23;40.16
63399;BME280;49533;-34.520;150.798;2023-07-22T03:12:52;100890.31;;;17.06;40.07
63399;BME280;49533;-34.520;150.798;2023-07-22T03:15:22;100956.94;;;17.40;40.19
63399;BME280;49533;-34.520;150.798;2023-07-22T03:17:53;100924.88;;;17.32;40.00
63399;BME280;49533;-34.520;150.798;2023-07-22T03:20:20;100967.47;;;17.63;40.06
63399;BME280;49533;-34.520;150.798;2023-07-22T03:22:48;100920.41;;;17.27;40.23
63399;BME280;49533;-34.520;150.798;2023-07-22T03:25:16;100963.56;;;17.64;40.01
63399;BME280;49533;-34.520;150.798;2023-07-22T03:27:44;100930.84;;;17.46;40.38
63399;BME280;49533;-34.520;150.798;2023-07-22T03:30:18;100898.56;;;17.31;40.17
63399;BME280;49533;-34.520;150.798;2023-07-22T03:32:46;100953.16;;;17.69;40.08
63399;BME280;49533;-34.520;150.798;2023-07-22T03:35:14;100948.56;;;17.61;39.96
63399;BME280;49533;-34.520;150.798;2023-07-22T03:37:41;100960.25;;;17.70;40.19
63399;BME280;49533;-34.520;150.798;2023-07-22T03:40:09;100912.19;;;17.39;40.10
63399;BME280;49533;-34.520;150.798;2023-07-22T03:42:48;100935.66;;;17.62;40.21
63399;BME280;49533;-34.520;150.798;2023-07-22T03:45:16;100917.69;;;17.52;40.18
63399;BME280;49533;-34.520;150.798;2023-07-22T03:47:45;100954.06;;;17.73;40.07
63399;BME280;49533;-34.520;150.798;2023-07-22T03:50:12;100891.38;;;17.38;40.06
63399;BME280;49533;-34.520;150.798;2023-07-22T03:52:39;100943.53;;;17.63;40.16
63399;BME280;49533;-34.520;150.798;2023-07-22T03:55:07;100916.28;;;17.46;40.28
63399;BME280;49533;-34.520;150.798;2023-07-22T03:57:34;100953.38;;;17.76;40.11
63399;BME280;49533;-34.520;150.798;2023-07-22T04:00:02;100962.56;;;17.80;40.15
63399;BME280;49533;-34.520;150.798;2023-07-22T04:02:30;100909.44;;;17.52;40.17
63399;BME280;49533;-34.520;150.798;2023-07-22T04:04:58;100944.91;;;17.69;40.14
63399;BME280;49533;-34.520;150.798;2023-07-22T04:07:25;100961.06;;;17.83;40.33
63399;BME280;49533;-34.520;150.798;2023-07-22T04:09:52;100888.25;;;17.40;40.23
63399;BME280;49533;-34.520;150.798;2023-07-22T04:12:19;100961.16;;;17.87;40.31
63399;BME280;49533;-34.520;150.798;2023-07-22T04:14:46;100946.28;;;17.75;40.46
63399;BME280;49533;-34.520;150.798;2023-07-22T04:17:13;100960.03;;;17.88;40.21
63399;BME280;49533;-34.520;150.798;2023-07-22T04:19:41;100942.72;;;17.75;40.27
63399;BME280;49533;-34.520;150.798;2023-07-22T04:22:09;100924.28;;;17.63;40.42
63399;BME280;49533;-34.520;150.798;2023-07-22T04:24:36;100870.53;;;17.25;40.43
63399;BME280;49533;-34.520;150.798;2023-07-22T04:27:04;100947.66;;;17.81;40.15
63399;BME280;49533;-34.520;150.798;2023-07-22T04:29:31;100924.19;;;17.72;40.47
63399;BME280;49533;-34.520;150.798;2023-07-22T04:31:59;100933.69;;;17.74;40.45
63399;BME280;49533;-34.520;150.798;2023-07-22T04:34:31;100939.41;;;17.81;40.52
63399;BME280;49533;-34.520;150.798;2023-07-22T04:36:58;100975.59;;;17.96;40.42
63399;BME280;49533;-34.520;150.798;2023-07-22T04:39:26;100948.13;;;17.84;40.29
63399;BME280;49533;-34.520;150.798;2023-07-22T04:41:53;100961.06;;;17.95;40.44
63399;BME280;49533;-34.520;150.798;2023-07-22T04:44:20;100914.69;;;17.69;40.09
63399;BME280;49533;-34.520;150.798;2023-07-22T04:46:47;100865.25;;;17.32;40.43
63399;BME280;49533;-34.520;150.798;2023-07-22T04:49:14;100936.00;;;17.85;40.29
63399;BME280;49533;-34.520;150.798;2023-07-22T04:51:45;100950.41;;;17.94;40.57
63399;BME280;49533;-34.520;150.798;2023-07-22T04:54:13;100949.28;;;17.83;40.56
63399;BME280;49533;-34.520;150.798;2023-07-22T04:56:42;100954.75;;;17.95;40.67
63399;BME280;49533;-34.520;150.798;2023-07-22T04:59:09;100965.75;;;17.95;40.46
63399;BME280;49533;-34.520;150.798;2023-07-22T05:01:36;100968.94;;;17.97;40.55
63399;BME280;49533;-34.520;150.798;2023-07-22T05:04:04;100917.53;;;17.60;40.51
63399;BME280;49533;-34.520;150.798;2023-07-22T05:06:32;100971.69;;;17.97;40.47
63399;BME280;49533;-34.520;150.798;2023-07-22T05:08:59;100943.19;;;17.77;40.56
63399;BME280;49533;-34.520;150.798;2023-07-22T05:11:27;100972.06;;;17.95;40.68
63399;BME280;49533;-34.520;150.798;2023-07-22T05:13:54;100979.16;;;17.96;40.64
63399;BME280;49533;-34.520;150.798;2023-07-22T05:16:21;100919.25;;;17.65;40.98
63399;BME280;49533;-34.520;150.798;2023-07-22T05:18:48;100969.41;;;17.99;40.73
63399;BME280;49533;-34.520;150.798;2023-07-22T05:21:15;100927.19;;;17.67;40.66
63399;BME280;49533;-34.520;150.798;2023-07-22T05:23:43;100958.19;;;17.92;40.71
63399;BME280;49533;-34.520;150.798;2023-07-22T05:26:10;100912.50;;;17.63;40.63
63399;BME280;49533;-34.520;150.798;2023-07-22T05:28:37;100885.19;;;17.42;40.61
63399;BME280;49533;-34.520;150.798;2023-07-22T05:31:04;100970.44;;;17.94;40.87
63399;BME280;49533;-34.520;150.798;2023-07-22T05:33:31;100980.41;;;17.87;41.79
63399;BME280;49533;-34.520;150.798;2023-07-22T05:35:58;100935.28;;;17.51;41.92
63399;BME280;49533;-34.520;150.798;2023-07-22T05:38:26;100940.44;;;17.40;42.24
63399;BME280;49533;-34.520;150.798;2023-07-22T05:40:53;100980.88;;;17.64;42.63
63399;BME280;49533;-34.520;150.798;2023-07-22T05:43:21;100987.38;;;17.59;42.62
63399;BME280;49533;-34.520;150.798;2023-07-22T05:45:49;100935.53;;;17.21;42.75
63399;BME280;49533;-34.520;150.798;2023-07-22T05:48:16;100988.75;;;17.53;42.87
63399;BME280;49533;-34.520;150.798;2023-07-22T05:50:43;100965.53;;;17.38;42.73
63399;BME280;49533;-34.520;150.798;2023-07-22T05:53:10;101007.88;;;17.50;43.13
63399;BME280;49533;-34.520;150.798;2023-07-22T05:55:37;100998.69;;;17.46;43.29
63399;BME280;49533;-34.520;150.798;2023-07-22T05:58:04;100993.53;;;17.32;43.64
63399;BME280;49533;-34.520;150.798;2023-07-22T06:00:34;100918.97;;;16.84;43.66
63399;BME280;49533;-34.520;150.798;2023-07-22T06:03:02;100833.78;;;16.35;43.48
63399;BME280;49533;-34.520;150.798;2023-07-22T06:05:31;100979.31;;;17.17;43.47
63399;BME280;49533;-34.520;150.798;2023-07-22T06:07:58;101011.03;;;17.27;43.72
63399;BME280;49533;-34.520;150.798;2023-07-22T06:10:25;101006.00;;;17.29;43.67
63399;BME280;49533;-34.520;150.798;2023-07-22T06:12:52;100996.00;;;17.12;43.92
63399;BME280;49533;-34.520;150.798;2023-07-22T06:15:20;100968.63;;;16.91;43.70
63399;BME280;49533;-34.520;150.798;2023-07-22T06:17:47;100940.69;;;16.77;43.76
63399;BME280;49533;-34.520;150.798;2023-07-22T06:20:14;101014.47;;;17.24;43.81
63399;BME280;49533;-34.520;150.798;2023-07-22T06:22:41;100943.88;;;16.79;43.58
63399;BME280;49533;-34.520;150.798;2023-07-22T06:25:09;101013.69;;;17.24;43.79
63399;BME280;49533;-34.520;150.798;2023-07-22T06:27:36;100992.22;;;17.05;43.96
63399;BME280;49533;-34.520;150.798;2023-07-22T06:30:03;101026.59;;;17.23;43.73
63399;BME280;49533;-34.520;150.798;2023-07-22T06:32:30;100800.53;;;15.91;43.58
63399;BME280;49533;-34.520;150.798;2023-07-22T06:34:58;100955.25;;;16.90;43.41
63399;BME280;49533;-34.520;150.798;2023-07-22T06:37:25;100994.97;;;17.05;43.64
63399;BME280;49533;-34.520;150.798;2023-07-22T06:39:52;101026.13;;;17.21;43.65
63399;BME280;49533;-34.520;150.798;2023-07-22T06:42:20;100986.94;;;16.87;44.01
63399;BME280;49533;-34.520;150.798;2023-07-22T06:44:50;100918.84;;;16.47;43.89
63399;BME280;49533;-34.520;150.798;2023-07-22T06:47:17;101012.63;;;17.16;43.69
63399;BME280;49533;-34.520;150.798;2023-07-22T06:49:44;101018.19;;;17.07;44.00
63399;BME280;49533;-34.520;150.798;2023-07-22T06:52:12;101020.72;;;17.00;44.26
63399;BME280;49533;-34.520;150.798;2023-07-22T06:54:39;100991.00;;;16.81;44.19
63399;BME280;49533;-34.520;150.798;2023-07-22T06:57:06;100950.97;;;16.47;44.59
63399;BME280;49533;-34.520;150.798;2023-07-22T06:59:33;100977.09;;;16.65;44.56
63399;BME280;49533;-34.520;150.798;2023-07-22T07:02:01;100881.72;;;15.96;44.69
63399;BME280;49533;-34.520;150.798;2023-07-22T07:04:28;101032.13;;;16.90;45.22
63399;BME280;49533;-34.520;150.798;2023-07-22T07:06:55;100932.91;;;16.25;44.97
63399;BME280;49533;-34.520;150.798;2023-07-22T07:09:23;100995.81;;;16.63;44.96
63399;BME280;49533;-34.520;150.798;2023-07-22T07:11:50;101041.19;;;16.82;45.02
63399;BME280;49533;-34.520;150.798;2023-07-22T07:14:18;101020.19;;;16.65;45.26
63399;BME280;49533;-34.520;150.798;2023-07-22T07:16:45;100985.63;;;16.51;45.23
63399;BME280;49533;-34.520;150.798;2023-07-22T07:19:12;101031.22;;;16.77;45.49
63399;BME280;49533;-34.520;150.798;2023-07-22T07:21:39;101013.75;;;16.61;45.89
63399;BME280;49533;-34.520;150.798;2023-07-22T07:24:08;101039.53;;;16.68;45.31
63399;BME280;49533;-34.520;150.798;2023-07-22T07:26:35;101032.25;;;16.51;45.95
63399;BME280;49533;-34.520;150.798;2023-07-22T07:29:02;100981.19;;;16.17;45.87
63399;BME280;49533;-34.520;150.798;2023-07-22T07:31:39;100953.97;;;15.91;45.92
63399;BME280;49533;-34.520;150.798;2023-07-22T07:34:06;101056.31;;;16.46;45.92
63399;BME280;49533;-34.520;150.798;2023-07-22T07:36:33;101045.94;;;16.30;46.05
63399;BME280;49533;-34.520;150.798;2023-07-22T07:39:01;101053.75;;;16.41;46.28
63399;BME280;49533;-34.520;150.798;2023-07-22T07:41:29;101041.13;;;16.27;46.25
63399;BME280;49533;-34.520;150.798;2023-07-22T07:43:57;100997.63;;;15.96;46.37
63399;BME280;49533;-34.520;150.798;2023-07-22T07:46:27;101062.34;;;16.39;46.11
63399;BME280;49533;-34.520;150.798;2023-07-22T07:48:57;101062.72;;;16.29;46.20
63399;BME280;49533;-34.520;150.798;2023-07-22T07:51:26;101070.88;;;16.38;46.30
63399;BME280;49533;-34.520;150.798;2023-07-22T07:53:54;100992.00;;;15.93;46.13
63399;BME280;49533;-34.520;150.798;2023-07-22T07:56:22;101058.94;;;16.42;46.16
63399;BME280;49533;-34.520;150.798;2023-07-22T07:58:53;101063.53;;;16.50;45.77
63399;BME280;49533;-34.520;150.798;2023-07-22T08:01:21;101044.41;;;16.42;45.14
63399;BME280;49533;-34.520;150.798;2023-07-22T08:03:48;101044.53;;;16.45;44.96
63399;BME280;49533;-34.520;150.798;2023-07-22T08:06:15;101069.09;;;16.63;44.65
63399;BME280;49533;-34.520;150.798;2023-07-22T08:08:43;101003.22;;;16.29;44.69
63399;BME280;49533;-34.520;150.798;2023-07-22T08:11:11;101042.53;;;16.55;44.59
63399;BME280;49533;-34.520;150.798;2023-07-22T08:13:41;101016.31;;;16.45;44.34
63399;BME280;49533;-34.520;150.798;2023-07-22T08:16:10;101055.78;;;16.73;44.25
63399;BME280;49533;-34.520;150.798;2023-07-22T08:18:38;101053.25;;;16.68;44.16
63399;BME280;49533;-34.520;150.798;2023-07-22T08:21:06;101028.56;;;16.47;44.03
63399;BME280;49533;-34.520;150.798;2023-07-22T08:23:34;101062.06;;;16.74;43.91
63399;BME280;49533;-34.520;150.798;2023-07-22T08:26:07;101061.25;;;16.73;43.86
63399;BME280;49533;-34.520;150.798;2023-07-22T08:28:35;101049.78;;;16.59;44.13
63399;BME280;49533;-34.520;150.798;2023-07-22T08:31:02;101084.59;;;16.88;43.81
63399;BME280;49533;-34.520;150.798;2023-07-22T08:33:29;101013.44;;;16.41;43.83
63399;BME280;49533;-34.520;150.798;2023-07-22T08:35:56;101081.50;;;16.90;43.64
63399;BME280;49533;-34.520;150.798;2023-07-22T08:38:23;100926.69;;;15.95;43.43
63399;BME280;49533;-34.520;150.798;2023-07-22T08:40:51;101046.47;;;16.66;43.46
63399;BME280;49533;-34.520;150.798;2023-07-22T08:43:20;101082.31;;;16.90;43.40
63399;BME280;49533;-34.520;150.798;2023-07-22T08:45:49;101092.50;;;16.90;43.46
63399;BME280;49533;-34.520;150.798;2023-07-22T08:48:18;101037.19;;;16.58;43.38
63399;BME280;49533;-34.520;150.798;2023-07-22T08:50:58;101066.06;;;16.77;43.15
63399;BME280;49533;-34.520;150.798;2023-07-22T08:53:27;101087.31;;;16.88;43.06
63399;BME280;49533;-34.520;150.798;2023-07-22T08:55:55;101081.84;;;16.88;43.26
63399;BME280;49533;-34.520;150.798;2023-07-22T08:58:24;101081.84;;;16.88;43.06
63399;BME280;49533;-34.520;150.798;2023-07-22T09:00:52;101063.69;;;16.75;43.13
63399;BME280;49533;-34.520;150.798;2023-07-22T09:03:19;101076.66;;;16.87;42.97
63399;BME280;49533;-34.520;150.798;2023-07-22T09:05:46;101014.72;;;16.44;43.13
63399;BME280;49533;-34.520;150.798;2023-07-22T09:08:14;101073.00;;;16.83;43.10
63399;BME280;49533;-34.520;150.798;2023-07-22T09:10:44;101017.91;;;16.46;43.14
63399;BME280;49533;-34.520;150.798;2023-07-22T09:13:13;101024.88;;;16.43;43.08
63399;BME280;49533;-34.520;150.798;2023-07-22T09:15:40;101030.03;;;16.45;43.12
63399;BME280;49533;-34.520;150.798;2023-07-22T09:18:08;101088.22;;;16.80;43.11
63399;BME280;49533;-34.520;150.798;2023-07-22T09:20:36;101071.72;;;16.59;43.02
63399;BME280;49533;-34.520;150.798;2023-07-22T09:23:03;101060.47;;;16.52;43.07
63399;BME280;49533;-34.520;150.798;2023-07-22T09:25:30;101095.28;;;16.81;43.02
63399;BME280;49533;-34.520;150.798;2023-07-22T09:27:59;101041.19;;;16.40;42.86
63399;BME280;49533;-34.520;150.798;2023-07-22T09:30:30;101065.16;;;16.51;43.07
63399;BME280;49533;-34.520;150.798;2023-07-22T09:32:59;101097.72;;;16.74;43.20
63399;BME280;49533;-34.520;150.798;2023-07-22T09:35:29;101103.06;;;16.79;43.25
63399;BME280;49533;-34.520;150.798;2023-07-22T09:37:56;101102.56;;;16.77;42.79
63399;BME280;49533;-34.520;150.798;2023-07-22T09:40:26;101110.81;;;16.77;42.97
63399;BME280;49533;-34.520;150.798;2023-07-22T09:42:56;101115.81;;;16.75;42.89
63399;BME280;49533;-34.520;150.798;2023-07-22T09:45:25;101049.22;;;16.24;42.75
63399;BME280;49533;-34.520;150.798;2023-07-22T09:47:53;101122.31;;;16.70;42.93
63399;BME280;49533;-34.520;150.798;2023-07-22T09:50:22;101128.47;;;16.67;42.96
63399;BME280;49533;-34.520;150.798;2023-07-22T09:52:53;101094.06;;;16.49;42.88
63399;BME280;49533;-34.520;150.798;2023-07-22T09:55:23;101051.00;;;16.20;42.89
63399;BME280;49533;-34.520;150.798;2023-07-22T09:57:55;101123.19;;;16.62;42.79
63399;BME280;49533;-34.520;150.798;2023-07-22T10:00:25;101098.13;;;16.43;42.83
63399;BME280;49533;-34.520;150.798;2023-07-22T10:02:53;101120.44;;;16.62;42.77
63399;BME280;49533;-34.520;150.798;2023-07-22T10:05:22;101118.00;;;16.61;42.86
63399;BME280;49533;-34.520;150.798;2023-07-22T10:07:53;101127.03;;;16.61;42.45
63399;BME280;49533;-34.520;150.798;2023-07-22T10:10:24;101054.41;;;16.17;42.73
63399;BME280;49533;-34.520;150.798;2023-07-22T10:12:52;101125.75;;;16.59;42.83
63399;BME280;49533;-34.520;150.798;2023-07-22T10:15:20;101121.91;;;16.60;42.75
63399;BME280;49533;-34.520;150.798;2023-07-22T10:17:47;101127.72;;;16.58;42.77
63399;BME280;49533;-34.520;150.798;2023-07-22T10:20:15;101050.91;;;16.07;42.72
63399;BME280;49533;-34.520;150.798;2023-07-22T10:22:44;101132.06;;;16.59;42.75
63399;BME280;49533;-34.520;150.798;2023-07-22T10:25:14;101128.50;;;16.59;42.80
63399;BME280;49533;-34.520;150.798;2023-07-22T10:27:43;101098.97;;;16.35;42.81
63399;BME280;49533;-34.520;150.798;2023-07-22T10:30:12;101136.59;;;16.55;42.76
63399;BME280;49533;-34.520;150.798;2023-07-22T10:32:42;101138.06;;;16.52;42.98
63399;BME280;49533;-34.520;150.798;2023-07-22T10:35:11;101124.03;;;16.54;42.87
63399;BME280;49533;-34.520;150.798;2023-07-22T10:37:39;101102.34;;;16.40;42.63
63399;BME280;49533;-34.520;150.798;2023-07-22T10:40:28;101107.03;;;16.40;42.75
63399;BME280;49533;-34.520;150.798;2023-07-22T10:43:00;101116.94;;;16.53;42.79
63399;BME280;49533;-34.520;150.798;2023-07-22T10:45:29;101117.72;;;16.53;42.67
63399;BME280;49533;-34.520;150.798;2023-07-22T10:48:11;101112.59;;;16.52;42.74
63399;BME280;49533;-34.520;150.798;2023-07-22T10:50:49;101115.19;;;16.48;42.67
63399;BME280;49533;-34.520;150.798;2023-07-22T10:53:30;101099.31;;;16.33;42.64
63399;BME280;49533;-34.520;150.798;2023-07-22T10:56:16;101081.16;;;16.20;42.67
63399;BME280;49533;-34.520;150.798;2023-07-22T10:58:58;101122.81;;;16.43;42.67
63399;BME280;49533;-34.520;150.798;2023-07-22T11:01:35;101110.47;;;16.28;42.61
63399;BME280;49533;-34.520;150.798;2023-07-22T11:04:23;101126.22;;;16.40;42.68
63399;BME280;49533;-34.520;150.798;2023-07-22T11:06:57;101121.22;;;16.42;42.79
63399;BME280;49533;-34.520;150.798;2023-07-22T11:09:39;101126.53;;;16.38;42.79
63399;BME280;49533;-34.520;150.798;2023-07-22T11:12:09;101128.81;;;16.36;42.69
63399;BME280;49533;-34.520;150.798;2023-07-22T11:14:49;101065.19;;;15.92;43.01
63399;BME280;49533;-34.520;150.798;2023-07-22T11:17:17;101064.84;;;15.94;42.91
63399;BME280;49533;-34.520;150.798;2023-07-22T11:19:45;101053.00;;;15.81;42.88
63399;BME280;49533;-34.520;150.798;2023-07-22T11:22:12;101079.53;;;15.89;43.16
63399;BME280;49533;-34.520;150.798;2023-07-22T11:24:40;101113.13;;;16.16;42.97
63399;BME280;49533;-34.520;150.798;2023-07-22T11:27:08;101090.47;;;15.98;42.70
63399;BME280;49533;-34.520;150.798;2023-07-22T11:29:36;101137.88;;;16.28;42.82
63399;BME280;49533;-34.520;150.798;2023-07-22T11:32:03;101085.69;;;15.86;43.03
63399;BME280;49533;-34.520;150.798;2023-07-22T11:34:31;101125.63;;;16.25;42.74
63399;BME280;49533;-34.520;150.798;2023-07-22T11:36:58;101115.03;;;16.24;42.87
63399;BME280;49533;-34.520;150.798;2023-07-22T11:39:26;101102.34;;;16.11;42.74
63399;BME280;49533;-34.520;150.798;2023-07-22T11:42:00;101056.88;;;15.80;42.97
63399;BME280;49533;-34.520;150.798;2023-07-22T11:44:29;101075.03;;;15.93;42.51
63399;BME280;49533;-34.520;150.798;2023-07-22T11:46:59;101096.72;;;16.07;42.54
63399;BME280;49533;-34.520;150.798;2023-07-22T11:49:31;101025.03;;;15.58;42.77
63399;BME280;49533;-34.520;150.798;2023-07-22T11:52:09;101117.47;;;16.17;42.83
63399;BME280;49533;-34.520;150.798;2023-07-22T11:54:40;101081.66;;;15.83;42.65
63399;BME280;49533;-34.520;150.798;2023-07-22T11:57:20;101061.88;;;15.78;42.83
63399;BME280;49533;-34.520;150.798;2023-07-22T11:59:50;101103.84;;;15.99;42.86
63399;BME280;49533;-34.520;150.798;2023-07-22T12:02:19;101066.88;;;15.76;42.86
63399;BME280;49533;-34.520;150.798;2023-07-22T12:04:53;101129.28;;;16.08;42.92
63399;BME280;49533;-34.520;150.798;2023-07-22T12:07:33;101097.63;;;15.90;42.94
63399;BME280;49533;-34.520;150.798;2023-07-22T12:10:03;101122.53;;;16.06;42.75
63399;BME280;49533;-34.520;150.798;2023-07-22T12:12:34;101068.03;;;15.57;42.84
63399;BME280;49533;-34.520;150.798;2023-07-22T12:15:13;101124.31;;;16.02;42.98
63399;BME280;49533;-34.520;150.798;2023-07-22T12:17:51;101079.13;;;15.70;42.75
63399;BME280;49533;-34.520;150.798;2023-07-22T12:20:19;101126.91;;;15.98;43.05
63399;BME280;49533;-34.520;150.798;2023-07-22T12:22:50;101124.84;;;15.95;42.95
63399;BME280;49533;-34.520;150.798;2023-07-22T12:25:17;101068.84;;;15.58;42.92
63399;BME280;49533;-34.520;150.798;2023-07-22T12:27:45;101114.97;;;15.94;43.10